sensor_id;sensor_type;location;lat;lon;timestamp;P1;durP1;ratioP1;P2;durP2;ratioP2
14074;SDS011;12831;52.392;13.066;2023-01-09T00:00:02;8.68;;;5.97;;
14074;SDS011;12831;52.392;13.066;2023-01-09T00:02:28;6.72;;;4.68;;
14074;SDS011;12831;52.392;13.066;2023-01-09T00:04:54;13.25;;;5.35;;
14074;SDS011;12831;52.392;13.066;2023-01-09T00:07:20;8.57;;;5.88;;
14074;SDS011;12831;52.392;13.066;2023-01-09T00:09:45;7.57;;;5.00;;
14074;SDS011;12831;52.392;13.066;2023-01-09T00:12:11;10.43;;;6.13;;
14074;SDS011;12831;52.392;13.066;2023-01-09T00:14:37;8.52;;;5.28;;
14074;SDS011;12831;52.392;13.066;2023-01-09T00:17:02;12.52;;;6.00;;
14074;SDS011;12831;52.392;13.066;2023-01-09T00:19:28;7.75;;;5.13;;
14074;SDS011;12831;52.392;13.066;2023-01-09T00:21:54;8.35;;;5.28;;
14074;SDS011;12831;52.392;13.066;2023-01-09T00:24:20;7.13;;;5.18;;
14074;SDS011;12831;52.392;13.066;2023-01-09T00:26:45;8.20;;;5.57;;
14074;SDS011;12831;52.392;13.066;2023-01-09T00:29:11;8.18;;;5.03;;
14074;SDS011;12831;52.392;13.066;2023-01-09T00:31:37;8.35;;;5.35;;
14074;SDS011;12831;52.392;13.066;2023-01-09T00:34:06;8.23;;;5.63;;
14074;SDS011;12831;52.392;13.066;2023-01-09T00:36:34;8.60;;;5.22;;
14074;SDS011;12831;52.392;13.066;2023-01-09T00:39:00;8.65;;;5.88;;
14074;SDS011;12831;52.392;13.066;2023-01-09T00:41:28;9.50;;;5.28;;
14074;SDS011;12831;52.392;13.066;2023-01-09T00:43:55;7.95;;;4.93;;
14074;SDS011;12831;52.392;13.066;2023-01-09T00:46:25;8.95;;;6.00;;
14074;SDS011;12831;52.392;13.066;2023-01-09T00:48:52;9.43;;;6.47;;
14074;SDS011;12831;52.392;13.066;2023-01-09T00:51:18;10.57;;;6.35;;
14074;SDS011;12831;52.392;13.066;2023-01-09T00:53:44;6.72;;;5.10;;
14074;SDS011;12831;52.392;13.066;2023-01-09T00:56:12;10.82;;;6.13;;
14074;SDS011;12831;52.392;13.066;2023-01-09T00:58:39;8.98;;;5.45;;
14074;SDS011;12831;52.392;13.066;2023-01-09T01:01:05;8.57;;;5.80;;
14074;SDS011;12831;52.392;13.066;2023-01-09T01:03:30;8.55;;;5.55;;
14074;SDS011;12831;52.392;13.066;2023-01-09T01:05:56;8.02;;;5.43;;
14074;SDS011;12831;52.392;13.066;2023-01-09T01:08:40;9.40;;;6.57;;
14074;SDS011;12831;52.392;13.066;2023-01-09T01:11:07;8.32;;;6.03;;
14074;SDS011;12831;52.392;13.066;2023-01-09T01:13:37;9.93;;;6.57;;
14074;SDS011;12831;52.392;13.066;2023-01-09T01:16:04;10.95;;;6.30;;
14074;SDS011;12831;52.392;13.066;2023-01-09T01:18:30;8.55;;;6.20;;
14074;SDS011;12831;52.392;13.066;2023-01-09T01:20:56;11.45;;;6.47;;
14074;SDS011;12831;52.392;13.066;2023-01-09T01:23:22;9.90;;;6.00;;
14074;SDS011;12831;52.392;13.066;2023-01-09T01:25:47;10.10;;;6.78;;
14074;SDS011;12831;52.392;13.066;2023-01-09T01:28:13;9.35;;;7.10;;
14074;SDS011;12831;52.392;13.066;2023-01-09T01:30:40;10.27;;;7.30;;
14074;SDS011;12831;52.392;13.066;2023-01-09T01:33:06;9.95;;;6.03;;
14074;SDS011;12831;52.392;13.066;2023-01-09T01:35:32;10.30;;;6.32;;
14074;SDS011;12831;52.392;13.066;2023-01-09T01:37:58;9.50;;;6.55;;
14074;SDS011;12831;52.392;13.066;2023-01-09T01:40:24;11.30;;;7.38;;
14074;SDS011;12831;52.392;13.066;2023-01-09T01:42:52;9.30;;;6.00;;
14074;SDS011;12831;52.392;13.066;2023-01-09T01:45:19;9.75;;;6.95;;
14074;SDS011;12831;52.392;13.066;2023-01-09T01:47:51;9.07;;;6.22;;
14074;SDS011;12831;52.392;13.066;2023-01-09T01:52:46;14.07;;;7.00;;
14074;SDS011;12831;52.392;13.066;2023-01-09T01:55:12;9.93;;;6.70;;
14074;SDS011;12831;52.392;13.066;2023-01-09T01:57:39;11.00;;;6.60;;
14074;SDS011;12831;52.392;13.066;2023-01-09T02:00:07;12.00;;;6.97;;
14074;SDS011;12831;52.392;13.066;2023-01-09T02:02:33;11.80;;;7.40;;
14074;SDS011;12831;52.392;13.066;2023-01-09T02:04:59;11.00;;;7.63;;
14074;SDS011;12831;52.392;13.066;2023-01-09T02:07:26;10.27;;;6.78;;
14074;SDS011;12831;52.392;13.066;2023-01-09T02:09:52;9.13;;;6.80;;
14074;SDS011;12831;52.392;13.066;2023-01-09T02:12:19;10.90;;;8.20;;
14074;SDS011;12831;52.392;13.066;2023-01-09T02:14:49;11.97;;;7.87;;
14074;SDS011;12831;52.392;13.066;2023-01-09T02:17:18;12.30;;;7.78;;
14074;SDS011;12831;52.392;13.066;2023-01-09T02:22:30;14.00;;;8.18;;
14074;SDS011;12831;52.392;13.066;2023-01-09T02:25:06;11.23;;;7.88;;
14074;SDS011;12831;52.392;13.066;2023-01-09T02:35:01;14.02;;;9.48;;
14074;SDS011;12831;52.392;13.066;2023-01-09T02:37:40;10.63;;;7.65;;
14074;SDS011;12831;52.392;13.066;2023-01-09T02:40:12;13.70;;;9.02;;
14074;SDS011;12831;52.392;13.066;2023-01-09T02:42:40;15.00;;;8.73;;
14074;SDS011;12831;52.392;13.066;2023-01-09T02:45:07;15.48;;;10.38;;
14074;SDS011;12831;52.392;13.066;2023-01-09T02:47:43;14.02;;;9.52;;
14074;SDS011;12831;52.392;13.066;2023-01-09T02:50:17;14.07;;;8.27;;
14074;SDS011;12831;52.392;13.066;2023-01-09T02:57:56;12.80;;;8.70;;
14074;SDS011;12831;52.392;13.066;2023-01-09T03:03:07;12.27;;;8.32;;
14074;SDS011;12831;52.392;13.066;2023-01-09T03:05:38;13.10;;;8.50;;
14074;SDS011;12831;52.392;13.066;2023-01-09T03:08:06;13.68;;;9.27;;
14074;SDS011;12831;52.392;13.066;2023-01-09T03:10:45;13.48;;;8.82;;
14074;SDS011;12831;52.392;13.066;2023-01-09T03:13:13;14.95;;;9.02;;
14074;SDS011;12831;52.392;13.066;2023-01-09T03:15:40;12.20;;;8.98;;
14074;SDS011;12831;52.392;13.066;2023-01-09T03:18:08;11.60;;;8.20;;
14074;SDS011;12831;52.392;13.066;2023-01-09T03:20:35;10.88;;;8.00;;
14074;SDS011;12831;52.392;13.066;2023-01-09T03:23:02;14.38;;;7.60;;
14074;SDS011;12831;52.392;13.066;2023-01-09T03:25:29;12.77;;;8.88;;
14074;SDS011;12831;52.392;13.066;2023-01-09T03:27:59;10.98;;;7.65;;
14074;SDS011;12831;52.392;13.066;2023-01-09T03:30:26;13.73;;;9.20;;
14074;SDS011;12831;52.392;13.066;2023-01-09T03:32:52;12.50;;;8.98;;
14074;SDS011;12831;52.392;13.066;2023-01-09T03:35:18;16.25;;;8.50;;
14074;SDS011;12831;52.392;13.066;2023-01-09T03:37:44;10.65;;;9.18;;
14074;SDS011;12831;52.392;13.066;2023-01-09T03:40:09;11.82;;;8.52;;
14074;SDS011;12831;52.392;13.066;2023-01-09T03:42:35;14.40;;;8.73;;
14074;SDS011;12831;52.392;13.066;2023-01-09T03:45:02;11.45;;;8.77;;
14074;SDS011;12831;52.392;13.066;2023-01-09T03:47:28;13.88;;;8.95;;
14074;SDS011;12831;52.392;13.066;2023-01-09T03:49:53;13.50;;;9.57;;
14074;SDS011;12831;52.392;13.066;2023-01-09T03:52:19;12.82;;;8.20;;
14074;SDS011;12831;52.392;13.066;2023-01-09T03:54:45;14.40;;;9.57;;
14074;SDS011;12831;52.392;13.066;2023-01-09T03:57:11;14.25;;;9.68;;
14074;SDS011;12831;52.392;13.066;2023-01-09T03:59:36;15.95;;;9.30;;
14074;SDS011;12831;52.392;13.066;2023-01-09T04:02:02;16.20;;;9.50;;
14074;SDS011;12831;52.392;13.066;2023-01-09T04:04:29;12.20;;;9.00;;
14074;SDS011;12831;52.392;13.066;2023-01-09T04:06:55;12.82;;;9.15;;
14074;SDS011;12831;52.392;13.066;2023-01-09T04:09:21;12.48;;;8.60;;
14074;SDS011;12831;52.392;13.066;2023-01-09T04:11:47;12.38;;;9.48;;
14074;SDS011;12831;52.392;13.066;2023-01-09T04:14:12;13.77;;;9.40;;
14074;SDS011;12831;52.392;13.066;2023-01-09T04:16:38;14.20;;;9.48;;
14074;SDS011;12831;52.392;13.066;2023-01-09T04:19:04;11.23;;;9.05;;
14074;SDS011;12831;52.392;13.066;2023-01-09T04:21:30;13.88;;;9.05;;
14074;SDS011;12831;52.392;13.066;2023-01-09T04:23:56;16.42;;;9.85;;
14074;SDS011;12831;52.392;13.066;2023-01-09T04:26:21;14.88;;;10.13;;
14074;SDS011;12831;52.392;13.066;2023-01-09T04:28:47;12.88;;;9.05;;
14074;SDS011;12831;52.392;13.066;2023-01-09T04:31:13;13.65;;;10.02;;
14074;SDS011;12831;52.392;13.066;2023-01-09T04:33:39;11.18;;;8.15;;
14074;SDS011;12831;52.392;13.066;2023-01-09T04:36:05;16.30;;;10.48;;
14074;SDS011;12831;52.392;13.066;2023-01-09T04:38:31;15.75;;;10.85;;
14074;SDS011;12831;52.392;13.066;2023-01-09T04:40:57;16.20;;;9.75;;
14074;SDS011;12831;52.392;13.066;2023-01-09T04:43:23;15.05;;;10.13;;
14074;SDS011;12831;52.392;13.066;2023-01-09T04:45:49;14.57;;;10.05;;
14074;SDS011;12831;52.392;13.066;2023-01-09T04:48:15;14.65;;;10.25;;
14074;SDS011;12831;52.392;13.066;2023-01-09T04:50:40;15.57;;;10.10;;
14074;SDS011;12831;52.392;13.066;2023-01-09T04:53:06;14.90;;;9.48;;
14074;SDS011;12831;52.392;13.066;2023-01-09T04:55:32;12.18;;;9.32;;
14074;SDS011;12831;52.392;13.066;2023-01-09T04:57:58;16.92;;;11.02;;
14074;SDS011;12831;52.392;13.066;2023-01-09T05:00:24;16.17;;;10.40;;
14074;SDS011;12831;52.392;13.066;2023-01-09T05:02:50;15.90;;;10.45;;
14074;SDS011;12831;52.392;13.066;2023-01-09T05:05:16;13.43;;;10.23;;
14074;SDS011;12831;52.392;13.066;2023-01-09T05:07:42;15.80;;;10.98;;
14074;SDS011;12831;52.392;13.066;2023-01-09T05:10:08;13.63;;;10.25;;
14074;SDS011;12831;52.392;13.066;2023-01-09T05:12:34;16.48;;;11.15;;
14074;SDS011;12831;52.392;13.066;2023-01-09T05:15:01;13.73;;;9.57;;
14074;SDS011;12831;52.392;13.066;2023-01-09T05:17:27;16.48;;;10.13;;
14074;SDS011;12831;52.392;13.066;2023-01-09T05:19:53;15.40;;;10.68;;
14074;SDS011;12831;52.392;13.066;2023-01-09T05:22:19;15.18;;;11.57;;
14074;SDS011;12831;52.392;13.066;2023-01-09T05:24:45;15.52;;;11.70;;
14074;SDS011;12831;52.392;13.066;2023-01-09T05:27:11;14.75;;;10.38;;
14074;SDS011;12831;52.392;13.066;2023-01-09T05:29:36;18.38;;;12.65;;
14074;SDS011;12831;52.392;13.066;2023-01-09T05:32:02;17.77;;;11.40;;
14074;SDS011;12831;52.392;13.066;2023-01-09T05:34:28;14.77;;;9.85;;
14074;SDS011;12831;52.392;13.066;2023-01-09T05:36:54;14.38;;;10.50;;
14074;SDS011;12831;52.392;13.066;2023-01-09T05:39:20;13.15;;;9.30;;
14074;SDS011;12831;52.392;13.066;2023-01-09T05:41:46;17.90;;;12.15;;
14074;SDS011;12831;52.392;13.066;2023-01-09T05:44:11;15.50;;;10.13;;
14074;SDS011;12831;52.392;13.066;2023-01-09T05:46:37;15.90;;;10.57;;
14074;SDS011;12831;52.392;13.066;2023-01-09T05:49:03;16.75;;;11.38;;
14074;SDS011;12831;52.392;13.066;2023-01-09T05:51:29;17.90;;;10.77;;
14074;SDS011;12831;52.392;13.066;2023-01-09T05:53:58;17.67;;;11.35;;
14074;SDS011;12831;52.392;13.066;2023-01-09T05:56:24;18.63;;;12.02;;
14074;SDS011;12831;52.392;13.066;2023-01-09T05:58:50;16.52;;;11.23;;
14074;SDS011;12831;52.392;13.066;2023-01-09T06:01:15;20.75;;;12.13;;
14074;SDS011;12831;52.392;13.066;2023-01-09T06:03:41;16.25;;;10.48;;
14074;SDS011;12831;52.392;13.066;2023-01-09T06:06:07;17.27;;;11.52;;
14074;SDS011;12831;52.392;13.066;2023-01-09T06:08:33;16.35;;;11.38;;
14074;SDS011;12831;52.392;13.066;2023-01-09T06:10:59;19.70;;;12.60;;
14074;SDS011;12831;52.392;13.066;2023-01-09T06:13:25;16.40;;;11.25;;
14074;SDS011;12831;52.392;13.066;2023-01-09T06:15:51;18.38;;;12.10;;
14074;SDS011;12831;52.392;13.066;2023-01-09T06:18:17;19.50;;;12.27;;
14074;SDS011;12831;52.392;13.066;2023-01-09T06:20:44;19.95;;;12.82;;
14074;SDS011;12831;52.392;13.066;2023-01-09T06:23:10;17.83;;;12.30;;
14074;SDS011;12831;52.392;13.066;2023-01-09T06:25:38;17.23;;;12.45;;
14074;SDS011;12831;52.392;13.066;2023-01-09T06:28:04;18.08;;;13.38;;
14074;SDS011;12831;52.392;13.066;2023-01-09T06:30:31;20.40;;;13.35;;
14074;SDS011;12831;52.392;13.066;2023-01-09T06:32:57;18.05;;;11.68;;
14074;SDS011;12831;52.392;13.066;2023-01-09T06:35:23;35.13;;;21.35;;
14074;SDS011;12831;52.392;13.066;2023-01-09T06:37:49;17.23;;;11.00;;
14074;SDS011;12831;52.392;13.066;2023-01-09T06:40:16;18.40;;;12.75;;
14074;SDS011;12831;52.392;13.066;2023-01-09T06:42:45;21.27;;;13.07;;
14074;SDS011;12831;52.392;13.066;2023-01-09T06:45:12;21.63;;;14.73;;
14074;SDS011;12831;52.392;13.066;2023-01-09T06:47:39;18.65;;;12.18;;
14074;SDS011;12831;52.392;13.066;2023-01-09T06:50:06;20.30;;;12.60;;
14074;SDS011;12831;52.392;13.066;2023-01-09T06:52:32;19.27;;;13.02;;
14074;SDS011;12831;52.392;13.066;2023-01-09T06:54:58;20.58;;;13.95;;
14074;SDS011;12831;52.392;13.066;2023-01-09T06:57:24;20.13;;;12.68;;
14074;SDS011;12831;52.392;13.066;2023-01-09T06:59:50;23.23;;;12.55;;
14074;SDS011;12831;52.392;13.066;2023-01-09T07:02:18;24.25;;;14.18;;
14074;SDS011;12831;52.392;13.066;2023-01-09T07:04:44;21.05;;;13.65;;
14074;SDS011;12831;52.392;13.066;2023-01-09T07:07:10;25.27;;;15.85;;
14074;SDS011;12831;52.392;13.066;2023-01-09T07:09:36;21.92;;;14.27;;
14074;SDS011;12831;52.392;13.066;2023-01-09T07:12:02;23.33;;;14.00;;
14074;SDS011;12831;52.392;13.066;2023-01-09T07:14:28;26.42;;;15.35;;
14074;SDS011;12831;52.392;13.066;2023-01-09T07:16:54;21.55;;;13.05;;
14074;SDS011;12831;52.392;13.066;2023-01-09T07:19:20;19.95;;;12.63;;
14074;SDS011;12831;52.392;13.066;2023-01-09T07:21:46;20.75;;;13.43;;
14074;SDS011;12831;52.392;13.066;2023-01-09T07:24:11;22.55;;;14.60;;
14074;SDS011;12831;52.392;13.066;2023-01-09T07:26:37;23.00;;;15.02;;
14074;SDS011;12831;52.392;13.066;2023-01-09T07:29:03;27.83;;;16.17;;
14074;SDS011;12831;52.392;13.066;2023-01-09T07:31:30;22.48;;;14.35;;
14074;SDS011;12831;52.392;13.066;2023-01-09T07:33:57;22.65;;;14.05;;
14074;SDS011;12831;52.392;13.066;2023-01-09T07:36:27;22.77;;;13.35;;
14074;SDS011;12831;52.392;13.066;2023-01-09T07:38:53;19.55;;;12.80;;
14074;SDS011;12831;52.392;13.066;2023-01-09T07:41:20;25.02;;;15.50;;
14074;SDS011;12831;52.392;13.066;2023-01-09T07:43:46;20.88;;;12.65;;
14074;SDS011;12831;52.392;13.066;2023-01-09T07:46:11;18.80;;;12.65;;
14074;SDS011;12831;52.392;13.066;2023-01-09T07:48:37;21.48;;;13.85;;
14074;SDS011;12831;52.392;13.066;2023-01-09T07:51:03;22.02;;;13.00;;
14074;SDS011;12831;52.392;13.066;2023-01-09T07:53:30;20.48;;;12.98;;
14074;SDS011;12831;52.392;13.066;2023-01-09T07:55:56;23.40;;;14.65;;
14074;SDS011;12831;52.392;13.066;2023-01-09T07:58:22;19.95;;;12.68;;
14074;SDS011;12831;52.392;13.066;2023-01-09T08:00:49;20.95;;;12.48;;
14074;SDS011;12831;52.392;13.066;2023-01-09T08:03:15;19.02;;;12.63;;
14074;SDS011;12831;52.392;13.066;2023-01-09T08:05:41;18.35;;;12.45;;
14074;SDS011;12831;52.392;13.066;2023-01-09T08:08:07;21.17;;;12.27;;
14074;SDS011;12831;52.392;13.066;2023-01-09T08:10:33;16.80;;;12.05;;
14074;SDS011;12831;52.392;13.066;2023-01-09T08:12:58;18.60;;;13.40;;
14074;SDS011;12831;52.392;13.066;2023-01-09T08:15:24;18.20;;;11.40;;
14074;SDS011;12831;52.392;13.066;2023-01-09T08:17:50;21.38;;;11.57;;
14074;SDS011;12831;52.392;13.066;2023-01-09T08:20:16;15.20;;;11.88;;
14074;SDS011;12831;52.392;13.066;2023-01-09T08:22:43;15.68;;;10.85;;
14074;SDS011;12831;52.392;13.066;2023-01-09T08:25:14;15.40;;;10.80;;
14074;SDS011;12831;52.392;13.066;2023-01-09T08:27:41;26.50;;;14.32;;
14074;SDS011;12831;52.392;13.066;2023-01-09T08:30:08;19.08;;;11.60;;
14074;SDS011;12831;52.392;13.066;2023-01-09T08:32:34;18.20;;;12.10;;
14074;SDS011;12831;52.392;13.066;2023-01-09T08:35:01;22.88;;;13.05;;
14074;SDS011;12831;52.392;13.066;2023-01-09T08:37:30;17.05;;;11.25;;
14074;SDS011;12831;52.392;13.066;2023-01-09T08:39:56;19.15;;;11.40;;
14074;SDS011;12831;52.392;13.066;2023-01-09T08:42:22;18.88;;;12.05;;
14074;SDS011;12831;52.392;13.066;2023-01-09T08:45:10;14.57;;;9.70;;
14074;SDS011;12831;52.392;13.066;2023-01-09T08:47:55;21.38;;;13.13;;
14074;SDS011;12831;52.392;13.066;2023-01-09T08:50:23;18.85;;;11.93;;
14074;SDS011;12831;52.392;13.066;2023-01-09T08:52:49;15.98;;;10.20;;
14074;SDS011;12831;52.392;13.066;2023-01-09T08:55:14;18.30;;;10.00;;
14074;SDS011;12831;52.392;13.066;2023-01-09T08:57:47;20.05;;;10.40;;
14074;SDS011;12831;52.392;13.066;2023-01-09T09:00:14;16.40;;;10.15;;
14074;SDS011;12831;52.392;13.066;2023-01-09T09:02:40;21.15;;;11.73;;
14074;SDS011;12831;52.392;13.066;2023-01-09T09:05:06;15.82;;;9.35;;
14074;SDS011;12831;52.392;13.066;2023-01-09T09:10:20;14.55;;;9.80;;
14074;SDS011;12831;52.392;13.066;2023-01-09T09:12:47;21.65;;;10.65;;
14074;SDS011;12831;52.392;13.066;2023-01-09T09:15:13;13.73;;;9.00;;
14074;SDS011;12831;52.392;13.066;2023-01-09T09:17:52;13.57;;;8.80;;
14074;SDS011;12831;52.392;13.066;2023-01-09T09:20:20;39.17;;;11.00;;
14074;SDS011;12831;52.392;13.066;2023-01-09T09:22:46;19.92;;;9.32;;
14074;SDS011;12831;52.392;13.066;2023-01-09T09:25:12;12.00;;;8.68;;
14074;SDS011;12831;52.392;13.066;2023-01-09T09:27:38;17.33;;;8.90;;
14074;SDS011;12831;52.392;13.066;2023-01-09T09:30:05;15.20;;;9.43;;
14074;SDS011;12831;52.392;13.066;2023-01-09T09:32:32;10.95;;;7.50;;
14074;SDS011;12831;52.392;13.066;2023-01-09T09:34:57;13.00;;;9.20;;
14074;SDS011;12831;52.392;13.066;2023-01-09T09:37:23;17.50;;;8.25;;
14074;SDS011;12831;52.392;13.066;2023-01-09T09:39:49;12.10;;;7.57;;
14074;SDS011;12831;52.392;13.066;2023-01-09T09:55:27;9.70;;;7.07;;
14074;SDS011;12831;52.392;13.066;2023-01-09T09:57:54;9.80;;;6.43;;
14074;SDS011;12831;52.392;13.066;2023-01-09T10:00:21;9.18;;;6.68;;
14074;SDS011;12831;52.392;13.066;2023-01-09T10:02:52;11.93;;;6.90;;
14074;SDS011;12831;52.392;13.066;2023-01-09T10:05:22;9.40;;;5.90;;
14074;SDS011;12831;52.392;13.066;2023-01-09T10:07:50;8.25;;;5.03;;
14074;SDS011;12831;52.392;13.066;2023-01-09T10:10:28;12.02;;;5.18;;
14074;SDS011;12831;52.392;13.066;2023-01-09T10:12:56;11.70;;;5.72;;
14074;SDS011;12831;52.392;13.066;2023-01-09T10:15:31;9.43;;;4.88;;
14074;SDS011;12831;52.392;13.066;2023-01-09T10:18:07;7.70;;;4.93;;
14074;SDS011;12831;52.392;13.066;2023-01-09T10:25:45;9.10;;;5.07;;
14074;SDS011;12831;52.392;13.066;2023-01-09T10:31:26;5.78;;;3.58;;
14074;SDS011;12831;52.392;13.066;2023-01-09T10:33:48;6.07;;;4.43;;
14074;SDS011;12831;52.392;13.066;2023-01-09T10:36:26;6.28;;;3.53;;
14074;SDS011;12831;52.392;13.066;2023-01-09T10:38:56;6.05;;;3.97;;
14074;SDS011;12831;52.392;13.066;2023-01-09T10:41:29;5.45;;;3.60;;
14074;SDS011;12831;52.392;13.066;2023-01-09T10:46:34;4.68;;;3.30;;
14074;SDS011;12831;52.392;13.066;2023-01-09T10:49:04;5.68;;;3.60;;
14074;SDS011;12831;52.392;13.066;2023-01-09T10:53:59;3.67;;;2.55;;
14074;SDS011;12831;52.392;13.066;2023-01-09T10:56:29;7.35;;;3.85;;
14074;SDS011;12831;52.392;13.066;2023-01-09T10:58:56;4.90;;;2.83;;
14074;SDS011;12831;52.392;13.066;2023-01-09T11:01:32;5.60;;;3.85;;
14074;SDS011;12831;52.392;13.066;2023-01-09T11:03:59;4.60;;;3.60;;
14074;SDS011;12831;52.392;13.066;2023-01-09T11:12:25;5.13;;;3.45;;
14074;SDS011;12831;52.392;13.066;2023-01-09T11:14:51;6.25;;;3.35;;
14074;SDS011;12831;52.392;13.066;2023-01-09T11:17:18;5.90;;;2.95;;
14074;SDS011;12831;52.392;13.066;2023-01-09T11:19:59;6.20;;;2.83;;
14074;SDS011;12831;52.392;13.066;2023-01-09T11:22:25;8.57;;;3.22;;
14074;SDS011;12831;52.392;13.066;2023-01-09T11:25:00;4.20;;;2.80;;
14074;SDS011;12831;52.392;13.066;2023-01-09T11:27:27;5.05;;;2.60;;
14074;SDS011;12831;52.392;13.066;2023-01-09T11:32:30;4.38;;;2.80;;
14074;SDS011;12831;52.392;13.066;2023-01-09T11:34:56;4.80;;;2.92;;
14074;SDS011;12831;52.392;13.066;2023-01-09T11:40:17;3.47;;;2.35;;
14074;SDS011;12831;52.392;13.066;2023-01-09T11:42:59;7.53;;;2.85;;
14074;SDS011;12831;52.392;13.066;2023-01-09T11:45:27;4.68;;;2.92;;
14074;SDS011;12831;52.392;13.066;2023-01-09T11:47:54;3.72;;;3.08;;
14074;SDS011;12831;52.392;13.066;2023-01-09T11:50:24;4.00;;;2.45;;
14074;SDS011;12831;52.392;13.066;2023-01-09T11:55:35;3.67;;;2.00;;
14074;SDS011;12831;52.392;13.066;2023-01-09T11:58:12;4.95;;;1.70;;
14074;SDS011;12831;52.392;13.066;2023-01-09T12:05:59;4.22;;;1.88;;
14074;SDS011;12831;52.392;13.066;2023-01-09T12:08:38;4.15;;;2.03;;
14074;SDS011;12831;52.392;13.066;2023-01-09T12:13:57;4.82;;;2.08;;
14074;SDS011;12831;52.392;13.066;2023-01-09T12:19:41;5.30;;;1.55;;
14074;SDS011;12831;52.392;13.066;2023-01-09T12:22:15;3.50;;;1.63;;
14074;SDS011;12831;52.392;13.066;2023-01-09T12:27:33;3.33;;;1.20;;
14074;SDS011;12831;52.392;13.066;2023-01-09T12:30:22;3.38;;;1.50;;
14074;SDS011;12831;52.392;13.066;2023-01-09T12:33:01;2.63;;;1.08;;
14074;SDS011;12831;52.392;13.066;2023-01-09T12:35:32;2.97;;;1.13;;
14074;SDS011;12831;52.392;13.066;2023-01-09T12:43:28;3.35;;;1.33;;
14074;SDS011;12831;52.392;13.066;2023-01-09T12:51:18;4.45;;;1.50;;
14074;SDS011;12831;52.392;13.066;2023-01-09T12:53:50;9.27;;;2.60;;
14074;SDS011;12831;52.392;13.066;2023-01-09T12:56:20;5.85;;;1.48;;
14074;SDS011;12831;52.392;13.066;2023-01-09T12:58:53;6.47;;;1.33;;
14074;SDS011;12831;52.392;13.066;2023-01-09T13:01:21;3.00;;;1.20;;
14074;SDS011;12831;52.392;13.066;2023-01-09T13:03:51;5.47;;;1.30;;
14074;SDS011;12831;52.392;13.066;2023-01-09T13:06:19;4.55;;;1.50;;
14074;SDS011;12831;52.392;13.066;2023-01-09T13:08:51;4.10;;;1.40;;
14074;SDS011;12831;52.392;13.066;2023-01-09T13:11:23;11.80;;;2.58;;
14074;SDS011;12831;52.392;13.066;2023-01-09T13:13:53;5.20;;;1.48;;
14074;SDS011;12831;52.392;13.066;2023-01-09T13:16:21;8.80;;;1.60;;
14074;SDS011;12831;52.392;13.066;2023-01-09T13:18:51;3.97;;;1.50;;
14074;SDS011;12831;52.392;13.066;2023-01-09T13:21:22;5.55;;;1.40;;
14074;SDS011;12831;52.392;13.066;2023-01-09T13:23:57;3.65;;;1.38;;
14074;SDS011;12831;52.392;13.066;2023-01-09T13:28:55;2.90;;;0.73;;
14074;SDS011;12831;52.392;13.066;2023-01-09T13:34:04;3.47;;;1.08;;
14074;SDS011;12831;52.392;13.066;2023-01-09T13:36:45;5.43;;;1.13;;
14074;SDS011;12831;52.392;13.066;2023-01-09T13:39:18;5.15;;;1.10;;
14074;SDS011;12831;52.392;13.066;2023-01-09T13:41:45;6.00;;;1.55;;
14074;SDS011;12831;52.392;13.066;2023-01-09T13:44:30;7.07;;;1.83;;
14074;SDS011;12831;52.392;13.066;2023-01-09T13:46:59;5.22;;;1.13;;
14074;SDS011;12831;52.392;13.066;2023-01-09T13:52:28;5.32;;;1.17;;
14074;SDS011;12831;52.392;13.066;2023-01-09T13:57:33;5.43;;;1.40;;
14074;SDS011;12831;52.392;13.066;2023-01-09T14:05:08;3.08;;;0.98;;
14074;SDS011;12831;52.392;13.066;2023-01-09T14:13:13;4.95;;;1.00;;
14074;SDS011;12831;52.392;13.066;2023-01-09T14:15:41;4.53;;;1.17;;
14074;SDS011;12831;52.392;13.066;2023-01-09T14:18:17;6.45;;;1.40;;
14074;SDS011;12831;52.392;13.066;2023-01-09T14:20:53;11.35;;;2.42;;
14074;SDS011;12831;52.392;13.066;2023-01-09T14:23:24;14.40;;;1.90;;
14074;SDS011;12831;52.392;13.066;2023-01-09T14:26:22;9.10;;;2.08;;
14074;SDS011;12831;52.392;13.066;2023-01-09T14:28:48;5.93;;;1.48;;
14074;SDS011;12831;52.392;13.066;2023-01-09T14:31:32;14.25;;;2.90;;
14074;SDS011;12831;52.392;13.066;2023-01-09T14:34:44;7.00;;;1.77;;
14074;SDS011;12831;52.392;13.066;2023-01-09T14:37:04;4.38;;;1.65;;
14074;SDS011;12831;52.392;13.066;2023-01-09T14:39:34;6.05;;;1.60;;
14074;SDS011;12831;52.392;13.066;2023-01-09T14:42:02;7.22;;;2.30;;
14074;SDS011;12831;52.392;13.066;2023-01-09T14:44:45;4.43;;;1.63;;
14074;SDS011;12831;52.392;13.066;2023-01-09T14:50:35;9.20;;;2.55;;
14074;SDS011;12831;52.392;13.066;2023-01-09T14:53:06;17.52;;;3.40;;
14074;SDS011;12831;52.392;13.066;2023-01-09T14:58:11;7.20;;;2.15;;
14074;SDS011;12831;52.392;13.066;2023-01-09T15:00:44;5.00;;;1.60;;
14074;SDS011;12831;52.392;13.066;2023-01-09T15:03:12;10.63;;;2.78;;
14074;SDS011;12831;52.392;13.066;2023-01-09T15:05:38;9.25;;;2.83;;
14074;SDS011;12831;52.392;13.066;2023-01-09T15:08:10;7.13;;;2.70;;
14074;SDS011;12831;52.392;13.066;2023-01-09T15:10:39;5.68;;;2.45;;
14074;SDS011;12831;52.392;13.066;2023-01-09T15:13:14;5.70;;;2.03;;
14074;SDS011;12831;52.392;13.066;2023-01-09T15:15:43;12.55;;;2.90;;
14074;SDS011;12831;52.392;13.066;2023-01-09T15:18:11;3.75;;;1.70;;
14074;SDS011;12831;52.392;13.066;2023-01-09T15:20:43;6.55;;;3.28;;
14074;SDS011;12831;52.392;13.066;2023-01-09T15:23:19;6.40;;;2.40;;
14074;SDS011;12831;52.392;13.066;2023-01-09T15:25:47;5.38;;;2.22;;
14074;SDS011;12831;52.392;13.066;2023-01-09T15:28:27;6.72;;;2.70;;
14074;SDS011;12831;52.392;13.066;2023-01-09T15:31:02;9.65;;;3.25;;
14074;SDS011;12831;52.392;13.066;2023-01-09T15:33:48;5.60;;;2.58;;
14074;SDS011;12831;52.392;13.066;2023-01-09T15:36:16;8.18;;;3.50;;
14074;SDS011;12831;52.392;13.066;2023-01-09T15:38:49;6.07;;;1.50;;
14074;SDS011;12831;52.392;13.066;2023-01-09T15:41:17;7.38;;;2.50;;
14074;SDS011;12831;52.392;13.066;2023-01-09T15:44:03;3.65;;;1.85;;
14074;SDS011;12831;52.392;13.066;2023-01-09T15:46:30;6.60;;;1.83;;
14074;SDS011;12831;52.392;13.066;2023-01-09T15:48:57;2.88;;;1.27;;
14074;SDS011;12831;52.392;13.066;2023-01-09T15:51:23;3.00;;;1.27;;
14074;SDS011;12831;52.392;13.066;2023-01-09T15:53:50;3.85;;;1.23;;
14074;SDS011;12831;52.392;13.066;2023-01-09T15:56:17;2.97;;;1.70;;
14074;SDS011;12831;52.392;13.066;2023-01-09T15:58:46;2.25;;;1.02;;
14074;SDS011;12831;52.392;13.066;2023-01-09T16:01:23;4.63;;;1.80;;
14074;SDS011;12831;52.392;13.066;2023-01-09T16:03:51;5.82;;;1.40;;
14074;SDS011;12831;52.392;13.066;2023-01-09T16:06:25;4.75;;;1.90;;
14074;SDS011;12831;52.392;13.066;2023-01-09T16:09:14;3.25;;;1.00;;
14074;SDS011;12831;52.392;13.066;2023-01-09T16:11:43;2.58;;;1.30;;
14074;SDS011;12831;52.392;13.066;2023-01-09T16:16:49;6.32;;;4.18;;
14074;SDS011;12831;52.392;13.066;2023-01-09T16:21:59;2.83;;;1.38;;
14074;SDS011;12831;52.392;13.066;2023-01-09T16:24:26;7.93;;;1.70;;
14074;SDS011;12831;52.392;13.066;2023-01-09T16:29:52;6.57;;;1.92;;
14074;SDS011;12831;52.392;13.066;2023-01-09T16:32:32;5.60;;;2.92;;
14074;SDS011;12831;52.392;13.066;2023-01-09T16:35:04;4.00;;;1.85;;